Time,TemperatureF,DewpointF,PressureIn,WindDirection,WindDirectionDegrees,WindSpeedMPH,WindSpeedGustMPH,Humidity,HourlyPrecipIn,Conditions,Clouds,dailyrainin,SoftwareType,DateUTC
2013-09-01 00:05:00,63.3,62.7,29.90,SSW,202,0.0,-999.0,98,-99.99,,,0.00,Acu-Link.com,2013-09-01 04:05:00,
2013-09-01 00:20:00,63.5,62.9,29.90,SW,225,0.0,-999.0,98,-99.99,,,0.00,Acu-Link.com,2013-09-01 04:20:00,
2013-09-01 00:36:00,63.3,62.7,29.91,East,90,0.0,-999.0,98,-99.99,,,0.00,Acu-Link.com,2013-09-01 04:36:00,
2013-09-01 00:51:00,63.1,62.6,29.89,South,180,0.0,-999.0,98,-99.99,,,0.00,Acu-Link.com,2013-09-01 04:51:00,
2013-09-01 01:06:00,62.8,62.2,29.90,East,90,0.0,-999.0,98,-99.99,,,0.00,Acu-Link.com,2013-09-01 05:06:00,
2013-09-01 01:21:00,62.4,61.8,29.89,East,90,0.0,-999.0,98,-99.99,,,0.00,Acu-Link.com,2013-09-01 05:21:00,
2013-09-01 01:36:00,62.1,61.5,29.89,South,180,0.0,-999.0,98,-99.99,,,0.00,Acu-Link.com,2013-09-01 05:36:00,
2013-09-01 01:52:00,61.7,61.1,29.89,East,90,0.0,-999.0,98,-99.99,,,0.00,Acu-Link.com,2013-09-01 05:52:00,
2013-09-01 02:07:00,61.3,60.8,29.89,NW,315,0.0,-999.0,98,-99.99,,,0.00,Acu-Link.com,2013-09-01 06:07:00,
2013-09-01 02:22:00,61.2,60.6,29.89,North,0,0.0,-999.0,98,-99.99,,,0.00,Acu-Link.com,2013-09-01 06:22:00,
2013-09-01 02:37:00,61.0,60.4,29.90,North,0,0.0,-999.0,98,-99.99,,,0.00,Acu-Link.com,2013-09-01 06:37:00,
2013-09-01 02:52:00,60.8,60.2,29.90,North,0,0.0,-999.0,98,-99.99,,,0.00,Acu-Link.com,2013-09-01 06:52:00,
2013-09-01 03:08:00,60.8,60.2,29.90,North,0,0.0,-999.0,98,-99.99,,,0.00,Acu-Link.com,2013-09-01 07:08:00,
2013-09-01 03:23:00,60.8,60.2,29.90,North,0,0.0,-999.0,98,-99.99,,,0.00,Acu-Link.com,2013-09-01 07:23:00,
2013-09-01 03:38:00,60.6,60.1,29.90,North,0,0.0,-999.0,98,-99.99,,,0.00,Acu-Link.com,2013-09-01 07:38:00,
2013-09-01 03:53:00,60.6,60.1,29.90,North,0,0.0,-999.0,98,-99.99,,,0.00,Acu-Link.com,2013-09-01 07:53:00,
2013-09-01 04:08:00,60.4,59.9,29.90,North,0,0.0,-999.0,98,-99.99,,,0.00,Acu-Link.com,2013-09-01 08:08:00,
2013-09-01 04:24:00,60.4,59.9,29.90,North,0,0.0,-999.0,98,-99.99,,,0.00,Acu-Link.com,2013-09-01 08:24:00,
2013-09-01 04:39:00,60.3,59.7,29.90,North,0,0.0,-999.0,98,-99.99,,,0.00,Acu-Link.com,2013-09-01 08:39:00,
2013-09-01 04:54:00,59.9,59.3,29.90,North,0,0.0,-999.0,98,-99.99,,,0.00,Acu-Link.com,2013-09-01 08:54:00,
2013-09-01 05:09:00,59.7,59.2,29.91,North,0,0.0,-999.0,98,-99.99,,,0.00,Acu-Link.com,2013-09-01 09:09:00,
2013-09-01 05:24:00,59.7,59.2,29.91,North,0,0.0,-999.0,98,-99.99,,,0.00,Acu-Link.com,2013-09-01 09:24:00,
2013-09-01 05:39:00,59.7,59.2,29.92,North,0,0.0,-999.0,98,-99.99,,,0.00,Acu-Link.com,2013-09-01 09:39:00,
2013-09-01 05:54:00,59.4,58.8,29.93,North,0,0.0,-999.0,98,-99.99,,,0.00,Acu-Link.com,2013-09-01 09:54:00,
2013-09-01 06:09:00,58.5,57.9,29.93,North,0,0.0,-999.0,98,-99.99,,,0.00,Acu-Link.com,2013-09-01 10:09:00,
2013-09-01 06:25:00,58.6,58.1,29.94,North,0,0.0,-999.0,98,-99.99,,,0.00,Acu-Link.com,2013-09-01 10:25:00,
2013-09-01 06:40:00,58.3,57.7,29.95,North,0,0.0,-999.0,98,-99.99,,,0.00,Acu-Link.com,2013-09-01 10:40:00,
2013-09-01 06:55:00,58.3,57.7,29.95,North,0,0.0,-999.0,98,-99.99,,,0.00,Acu-Link.com,2013-09-01 10:55:00,
2013-09-01 07:10:00,58.1,57.5,29.95,North,0,0.0,-999.0,98,-99.99,,,0.00,Acu-Link.com,2013-09-01 11:10:00,
2013-09-01 07:25:00,58.8,58.3,29.95,North,0,0.0,-999.0,98,-99.99,,,0.00,Acu-Link.com,2013-09-01 11:25:00,
2013-09-01 07:41:00,59.2,58.6,29.95,North,0,0.0,-999.0,98,-99.99,,,0.00,Acu-Link.com,2013-09-01 11:41:00,
2013-09-01 07:56:00,59.7,59.2,29.95,North,0,0.0,-999.0,98,-99.99,,,0.00,Acu-Link.com,2013-09-01 11:56:00,
2013-09-01 08:11:00,60.4,59.9,29.95,North,0,0.0,-999.0,98,-99.99,,,0.00,Acu-Link.com,2013-09-01 12:11:00,
2013-09-01 08:26:00,60.6,60.1,29.95,North,0,0.0,-999.0,98,-99.99,,,0.00,Acu-Link.com,2013-09-01 12:26:00,
2013-09-01 08:41:00,61.7,61.1,29.95,SW,225,0.0,-999.0,98,-99.99,,,0.00,Acu-Link.com,2013-09-01 12:41:00,
2013-09-01 08:57:00,62.2,61.7,29.96,West,270,0.0,-999.0,98,-99.99,,,0.00,Acu-Link.com,2013-09-01 12:57:00,
2013-09-01 09:12:00,63.0,62.4,29.96,SE,135,0.0,-999.0,98,-99.99,,,0.00,Acu-Link.com,2013-09-01 13:12:00,
2013-09-01 09:27:00,63.5,62.9,29.96,SW,225,2.7,-999.0,98,-99.99,,,0.00,Acu-Link.com,2013-09-01 13:27:00,
2013-09-01 09:42:00,63.7,63.1,29.97,NE,45,0.0,-999.0,98,-99.99,,,0.00,Acu-Link.com,2013-09-01 13:42:00,
2013-09-01 09:57:00,63.9,59.6,29.97,ENE,67,0.0,-999.0,86,-99.99,,,0.00,Acu-Link.com,2013-09-01 13:57:00,
2013-09-01 10:13:00,64.6,59.0,29.97,ENE,67,0.0,-999.0,82,-99.99,,,0.00,Acu-Link.com,2013-09-01 14:13:00,
2013-09-01 10:28:00,65.8,59.5,29.97,ENE,67,0.0,-999.0,80,-99.99,,,0.00,Acu-Link.com,2013-09-01 14:28:00,
2013-09-01 10:43:00,66.7,60.7,29.98,ENE,67,0.0,-999.0,81,-99.99,,,0.00,Acu-Link.com,2013-09-01 14:43:00,
2013-09-01 10:58:00,67.8,62.1,29.97,SSW,202,0.0,-999.0,82,-99.99,,,0.00,Acu-Link.com,2013-09-01 14:58:00,
2013-09-01 11:13:00,69.6,61.7,29.98,NE,45,0.0,-999.0,76,-99.99,,,0.00,Acu-Link.com,2013-09-01 15:13:00,
2013-09-01 11:29:00,70.5,60.7,29.98,NE,45,2.2,-999.0,71,-99.99,,,0.00,Acu-Link.com,2013-09-01 15:29:00,
2013-09-01 11:44:00,71.4,61.9,29.98,East,90,0.0,-999.0,72,-99.99,,,0.00,Acu-Link.com,2013-09-01 15:44:00,
2013-09-01 11:59:00,72.1,61.0,29.97,ENE,67,0.0,-999.0,68,-99.99,,,0.00,Acu-Link.com,2013-09-01 15:59:00,
2013-09-01 12:14:00,71.2,62.1,29.97,East,90,0.0,-999.0,73,-99.99,,,0.00,Acu-Link.com,2013-09-01 16:14:00,
2013-09-01 12:29:00,70.7,62.0,29.97,West,270,0.0,-999.0,74,-99.99,,,0.00,Acu-Link.com,2013-09-01 16:29:00,
2013-09-01 12:45:00,70.3,62.4,29.96,North,0,0.0,-999.0,76,-99.99,,,0.00,Acu-Link.com,2013-09-01 16:45:00,
2013-09-01 13:00:00,70.9,63.7,29.96,NE,45,0.0,-999.0,78,-99.99,,,0.00,Acu-Link.com,2013-09-01 17:00:00,
2013-09-01 13:15:00,71.1,62.0,29.96,East,90,0.0,-999.0,73,-99.99,,,0.00,Acu-Link.com,2013-09-01 17:15:00,
2013-09-01 13:30:00,71.2,63.3,29.97,NNE,22,0.0,-999.0,76,-99.99,,,0.00,Acu-Link.com,2013-09-01 17:30:00,
2013-09-01 13:45:00,71.2,63.3,29.97,NE,45,0.0,-999.0,76,-99.99,,,0.00,Acu-Link.com,2013-09-01 17:45:00,
2013-09-01 14:01:00,72.7,61.1,29.97,ENE,67,2.2,-999.0,67,-99.99,,,0.00,Acu-Link.com,2013-09-01 18:01:00,
2013-09-01 14:16:00,72.9,62.5,29.96,ENE,67,0.0,-999.0,70,-99.99,,,0.00,Acu-Link.com,2013-09-01 18:16:00,
2013-09-01 14:31:00,72.1,62.2,29.96,WNW,292,0.0,-999.0,71,-99.99,,,0.00,Acu-Link.com,2013-09-01 18:31:00,
2013-09-01 14:46:00,71.8,62.6,29.96,ENE,67,0.0,-999.0,73,-99.99,,,0.00,Acu-Link.com,2013-09-01 18:46:00,
2013-09-01 15:01:00,71.4,63.8,29.95,NNE,22,0.0,-999.0,77,-99.99,,,0.00,Acu-Link.com,2013-09-01 19:01:00,
2013-09-01 15:17:00,71.2,63.3,29.95,NNE,22,0.0,-999.0,76,-99.99,,,0.00,Acu-Link.com,2013-09-01 19:17:00,
2013-09-01 15:32:00,70.9,62.9,29.95,WNW,292,0.0,-999.0,76,-99.99,,,0.00,Acu-Link.com,2013-09-01 19:32:00,
2013-09-01 15:47:00,70.9,62.6,29.94,ENE,67,0.0,-999.0,75,-99.99,,,0.00,Acu-Link.com,2013-09-01 19:47:00,
2013-09-01 16:02:00,71.1,62.3,29.95,ENE,67,0.0,-999.0,74,-99.99,,,0.00,Acu-Link.com,2013-09-01 20:02:00,
2013-09-01 16:17:00,71.2,62.1,29.94,NE,45,2.7,-999.0,73,-99.99,,,0.00,Acu-Link.com,2013-09-01 20:17:00,
2013-09-01 16:33:00,71.8,61.5,29.94,NE,45,2.2,-999.0,70,-99.99,,,0.00,Acu-Link.com,2013-09-01 20:33:00,
2013-09-01 16:48:00,71.8,61.5,29.95,NNE,22,0.0,-999.0,70,-99.99,,,0.00,Acu-Link.com,2013-09-01 20:48:00,
2013-09-01 17:03:00,72.0,62.0,29.94,ENE,67,3.1,-999.0,71,-99.99,,,0.00,Acu-Link.com,2013-09-01 21:03:00,
2013-09-01 17:18:00,72.0,61.6,29.93,East,90,0.0,-999.0,70,-99.99,,,0.00,Acu-Link.com,2013-09-01 21:18:00,
2013-09-01 17:33:00,71.6,62.1,29.93,East,90,0.0,-999.0,72,-99.99,,,0.00,Acu-Link.com,2013-09-01 21:33:00,
2013-09-01 17:49:00,71.2,62.5,29.93,NW,315,0.0,-999.0,74,-99.99,,,0.00,Acu-Link.com,2013-09-01 21:49:00,
2013-09-01 18:04:00,70.7,62.0,29.94,ENE,67,2.2,-999.0,74,-99.99,,,0.00,Acu-Link.com,2013-09-01 22:04:00,
2013-09-01 18:19:00,70.7,61.2,29.94,East,90,0.0,-999.0,72,-99.99,,,0.00,Acu-Link.com,2013-09-01 22:19:00,
2013-09-01 18:34:00,69.8,62.3,29.94,NE,45,0.0,-999.0,77,-99.99,,,0.00,Acu-Link.com,2013-09-01 22:34:00,
2013-09-01 18:49:00,69.1,62.6,29.94,West,270,0.0,-999.0,80,-99.99,,,0.00,Acu-Link.com,2013-09-01 22:49:00,
2013-09-01 19:05:00,68.2,62.5,29.93,NNW,337,0.0,-999.0,82,-99.99,,,0.00,Acu-Link.com,2013-09-01 23:05:00,
2013-09-01 19:20:00,67.5,62.1,29.93,West,270,0.0,-999.0,83,-99.99,,,0.00,Acu-Link.com,2013-09-01 23:20:00,
2013-09-01 19:35:00,66.7,61.4,29.94,WNW,292,0.0,-999.0,83,-99.99,,,0.00,Acu-Link.com,2013-09-01 23:35:00,
2013-09-01 19:50:00,65.8,61.5,29.94,NNW,337,0.0,-999.0,86,-99.99,,,0.00,Acu-Link.com,2013-09-01 23:50:00,
2013-09-01 20:05:00,65.1,61.8,29.94,NNW,337,0.0,-999.0,89,-99.99,,,0.00,Acu-Link.com,2013-09-02 00:05:00,
2013-09-01 20:21:00,64.4,61.7,29.94,NNW,337,0.0,-999.0,91,-99.99,,,0.00,Acu-Link.com,2013-09-02 00:21:00,
2013-09-01 20:36:00,63.9,61.5,29.94,NNW,337,0.0,-999.0,92,-99.99,,,0.00,Acu-Link.com,2013-09-02 00:36:00,
2013-09-01 20:51:00,63.3,62.7,29.94,NNW,337,0.0,-999.0,98,-99.99,,,0.00,Acu-Link.com,2013-09-02 00:51:00,
2013-09-01 21:06:00,62.8,60.4,29.95,NNW,337,0.0,-999.0,92,-99.99,,,0.00,Acu-Link.com,2013-09-02 01:06:00,
2013-09-01 21:21:00,62.8,60.4,29.95,NNW,337,0.0,-999.0,92,-99.99,,,0.00,Acu-Link.com,2013-09-02 01:21:00,
2013-09-01 21:37:00,62.6,62.0,29.95,NNW,337,0.0,-999.0,98,-99.99,,,0.00,Acu-Link.com,2013-09-02 01:37:00,
2013-09-01 21:52:00,64.4,60.8,29.95,ENE,67,0.0,-999.0,88,-99.99,,,0.00,Acu-Link.com,2013-09-02 01:52:00,
2013-09-01 22:07:00,64.9,61.0,29.94,ENE,67,0.0,-999.0,87,-99.99,,,0.00,Acu-Link.com,2013-09-02 02:07:00,
2013-09-01 22:22:00,65.1,61.1,29.94,ENE,67,0.0,-999.0,87,-99.99,,,0.00,Acu-Link.com,2013-09-02 02:22:00,
2013-09-01 22:37:00,65.1,61.1,29.94,ENE,67,0.0,-999.0,87,-99.99,,,0.00,Acu-Link.com,2013-09-02 02:37:00,
2013-09-01 22:53:00,64.9,60.6,29.94,ENE,67,0.0,-999.0,86,-99.99,,,0.00,Acu-Link.com,2013-09-02 02:53:00,
2013-09-01 23:08:00,64.8,60.8,29.94,ENE,67,0.0,-999.0,87,-99.99,,,0.00,Acu-Link.com,2013-09-02 03:08:00,
2013-09-01 23:23:00,64.4,60.1,29.93,ENE,67,0.0,-999.0,86,-99.99,,,0.00,Acu-Link.com,2013-09-02 03:23:00,
2013-09-01 23:38:00,64.0,59.8,29.93,East,90,0.0,-999.0,86,-99.99,,,0.00,Acu-Link.com,2013-09-02 03:38:00,
2013-09-01 23:54:00,63.5,59.2,29.92,ENE,67,0.0,-999.0,86,-99.99,,,0.00,Acu-Link.com,2013-09-02 03:54:00,